DAL352 KATL-KDTW
Flight info
| Callsign | DAL352 |
|---|---|
| Flight time | 1h 25m |
| Altitude | 41000 |
| Route | PADGT2 SMTTH Q67 HNN SUBWY HTROD2 |
| Aircraft | A359/H-SDE2E3GHIJ3J4J5LM1ORWXY/LB1D1 |
Departure
| Time | 2026-05-08 00:57 |
|---|---|
| Airport | Hartsfield Jackson Atlanta International Airport (KATL) |
Arrival
| Time | 2026-05-08 02:23 |
|---|---|
| Airport | Detroit Metropolitan Wayne County Airport (KDTW) |
| Time | Latitude | Longitude | Altitude | Speed | Heading |
|---|---|---|---|---|---|
| 2026-05-08 00:32 | 33.63737 | -84.44179 | 1013 ft | 0 kts | 270° |
| 2026-05-08 00:42 | 33.63737 | -84.44164 | 1013 ft | 3 kts | 257° |
| 2026-05-08 00:42 | 33.63746 | -84.44141 | 1013 ft | 3 kts | 213° |
| 2026-05-08 00:42 | 33.63757 | -84.44133 | 1013 ft | 0 kts | 186° |
| 2026-05-08 00:45 | 33.63756 | -84.44133 | 1013 ft | 1 kts | 186° |
| 2026-05-08 00:45 | 33.63752 | -84.44131 | 1013 ft | 1 kts | 163° |
| 2026-05-08 00:46 | 33.63749 | -84.44120 | 1013 ft | 2 kts | 111° |
| 2026-05-08 00:46 | 33.63757 | -84.44109 | 1013 ft | 2 kts | 39° |
| 2026-05-08 00:46 | 33.63765 | -84.44111 | 1013 ft | 0 kts | 356° |
| 2026-05-08 00:47 | 33.63774 | -84.44112 | 1013 ft | 3 kts | 356° |
| 2026-05-08 00:47 | 33.63814 | -84.44114 | 1013 ft | 8 kts | 358° |
| 2026-05-08 00:47 | 33.63882 | -84.44117 | 1013 ft | 13 kts | 359° |
| 2026-05-08 00:48 | 33.63992 | -84.44117 | 1013 ft | 18 kts | 359° |
| 2026-05-08 00:48 | 33.64141 | -84.44118 | 1012 ft | 24 kts | 359° |
| 2026-05-08 00:48 | 33.64317 | -84.44118 | 1012 ft | 28 kts | 0° |
| 2026-05-08 00:48 | 33.64475 | -84.44067 | 1012 ft | 21 kts | 50° |
| 2026-05-08 00:49 | 33.64517 | -84.43901 | 1012 ft | 22 kts | 80° |
| 2026-05-08 00:49 | 33.64537 | -84.43709 | 1013 ft | 25 kts | 85° |
| 2026-05-08 00:49 | 33.64543 | -84.43488 | 1013 ft | 28 kts | 90° |
| 2026-05-08 00:49 | 33.64542 | -84.43224 | 1013 ft | 36 kts | 90° |
| 2026-05-08 00:50 | 33.64544 | -84.42901 | 1013 ft | 41 kts | 89° |
| 2026-05-08 00:50 | 33.64542 | -84.42557 | 1012 ft | 42 kts | 91° |
| 2026-05-08 00:50 | 33.64540 | -84.42198 | 1012 ft | 43 kts | 90° |
| 2026-05-08 00:50 | 33.64543 | -84.41853 | 1013 ft | 41 kts | 89° |
| 2026-05-08 00:51 | 33.64544 | -84.41509 | 1013 ft | 42 kts | 90° |
| 2026-05-08 00:51 | 33.64543 | -84.41152 | 1013 ft | 43 kts | 90° |
| 2026-05-08 00:51 | 33.64543 | -84.40862 | 1012 ft | 31 kts | 84° |
| 2026-05-08 00:51 | 33.64568 | -84.40726 | 1012 ft | 0 kts | 85° |
| 2026-05-08 00:52 | 33.64569 | -84.40694 | 1012 ft | 10 kts | 88° |
| 2026-05-08 00:52 | 33.64587 | -84.40590 | 1011 ft | 0 kts | 53° |
| 2026-05-08 00:53 | 33.64607 | -84.40576 | 1011 ft | 9 kts | 21° |
| 2026-05-08 00:53 | 33.64675 | -84.40621 | 1010 ft | 11 kts | 279° |
| 2026-05-08 00:54 | 33.64676 | -84.40645 | 1010 ft | 0 kts | 275° |
| 2026-05-08 00:56 | 33.64676 | -84.40648 | 1010 ft | 1 kts | 275° |
| 2026-05-08 00:56 | 33.64680 | -84.40777 | 1011 ft | 45 kts | 270° |
| 2026-05-08 00:56 | 33.64682 | -84.41458 | 1016 ft | 114 kts | 269° |
| 2026-05-08 00:57 | 33.64715 | -84.42600 | 1290 ft | 142 kts | 276° |
| 2026-05-08 00:57 | 33.64740 | -84.43758 | 2099 ft | 134 kts | 275° |
| 2026-05-08 00:57 | 33.64751 | -84.44850 | 2776 ft | 134 kts | 278° |
| 2026-05-08 00:57 | 33.64976 | -84.46026 | 3147 ft | 157 kts | 292° |
| 2026-05-08 00:58 | 33.65407 | -84.47347 | 3591 ft | 180 kts | 293° |
| 2026-05-08 00:58 | 33.65909 | -84.48801 | 4192 ft | 194 kts | 293° |
| 2026-05-08 00:58 | 33.66451 | -84.50337 | 4820 ft | 207 kts | 292° |
| 2026-05-08 00:58 | 33.67035 | -84.51961 | 5303 ft | 225 kts | 292° |
| 2026-05-08 00:59 | 33.67674 | -84.53721 | 6099 ft | 230 kts | 291° |
| 2026-05-08 00:59 | 33.68349 | -84.55471 | 7029 ft | 232 kts | 295° |
| 2026-05-08 00:59 | 33.69359 | -84.57023 | 7887 ft | 244 kts | 313° |
| 2026-05-08 00:59 | 33.70879 | -84.58030 | 8755 ft | 262 kts | 336° |
| 2026-05-08 01:00 | 33.72743 | -84.58231 | 9724 ft | 276 kts | 351° |
| 2026-05-08 01:00 | 33.74697 | -84.58181 | 10570 ft | 281 kts | 351° |
| 2026-05-08 01:00 | 33.76647 | -84.58139 | 11461 ft | 282 kts | 349° |
| 2026-05-08 01:00 | 33.78628 | -84.58109 | 12386 ft | 284 kts | 348° |
| 2026-05-08 01:01 | 33.80584 | -84.58050 | 13324 ft | 289 kts | 350° |
| 2026-05-08 01:01 | 33.82663 | -84.57589 | 14084 ft | 312 kts | 2° |
| 2026-05-08 01:01 | 33.84799 | -84.56820 | 14530 ft | 333 kts | 5° |
| 2026-05-08 01:01 | 33.87067 | -84.55964 | 14921 ft | 349 kts | 5° |
| 2026-05-08 01:02 | 33.89424 | -84.55082 | 15350 ft | 364 kts | 5° |
| 2026-05-08 01:02 | 33.91863 | -84.54176 | 15784 ft | 377 kts | 5° |
| 2026-05-08 01:02 | 33.94425 | -84.53222 | 16337 ft | 386 kts | 6° |
| 2026-05-08 01:02 | 33.97027 | -84.52253 | 16966 ft | 393 kts | 5° |
| 2026-05-08 01:03 | 33.99662 | -84.51273 | 17627 ft | 399 kts | 5° |
| 2026-05-08 01:03 | 34.02320 | -84.50288 | 18241 ft | 405 kts | 5° |
| 2026-05-08 01:03 | 34.05032 | -84.49284 | 18816 ft | 410 kts | 5° |
| 2026-05-08 01:03 | 34.07786 | -84.48262 | 19409 ft | 415 kts | 5° |
| 2026-05-08 01:04 | 34.10568 | -84.47232 | 20050 ft | 419 kts | 5° |
| 2026-05-08 01:04 | 34.13362 | -84.46197 | 20636 ft | 423 kts | 5° |
| 2026-05-08 01:04 | 34.16182 | -84.45151 | 21213 ft | 427 kts | 5° |
| 2026-05-08 01:04 | 34.19015 | -84.44100 | 21814 ft | 431 kts | 5° |
| 2026-05-08 01:05 | 34.21909 | -84.43027 | 22396 ft | 436 kts | 5° |
| 2026-05-08 01:05 | 34.24810 | -84.41950 | 22955 ft | 441 kts | 5° |
| 2026-05-08 01:05 | 34.27763 | -84.40853 | 23577 ft | 445 kts | 5° |
| 2026-05-08 01:05 | 34.30755 | -84.39878 | 24077 ft | 441 kts | 360° |
| 2026-05-08 01:06 | 34.33739 | -84.39148 | 24577 ft | 443 kts | 358° |
| 2026-05-08 01:06 | 34.36775 | -84.38428 | 25059 ft | 449 kts | 358° |
| 2026-05-08 01:06 | 34.39870 | -84.37689 | 25498 ft | 455 kts | 358° |
| 2026-05-08 01:06 | 34.42986 | -84.36937 | 25979 ft | 458 kts | 358° |
| 2026-05-08 01:07 | 34.46109 | -84.36183 | 26495 ft | 462 kts | 358° |
| 2026-05-08 01:07 | 34.49303 | -84.35412 | 27013 ft | 466 kts | 358° |
| 2026-05-08 01:07 | 34.52490 | -84.34642 | 27540 ft | 469 kts | 358° |
| 2026-05-08 01:07 | 34.55703 | -84.33863 | 28050 ft | 472 kts | 358° |
| 2026-05-08 01:08 | 34.58914 | -84.33087 | 28513 ft | 477 kts | 358° |
| 2026-05-08 01:08 | 34.62208 | -84.32290 | 29089 ft | 479 kts | 357° |
| 2026-05-08 01:08 | 34.65461 | -84.31498 | 29755 ft | 479 kts | 356° |
| 2026-05-08 01:08 | 34.68717 | -84.30709 | 30212 ft | 482 kts | 356° |
| 2026-05-08 01:09 | 34.72071 | -84.29900 | 30547 ft | 487 kts | 356° |
| 2026-05-08 01:09 | 34.75366 | -84.29103 | 30863 ft | 492 kts | 357° |
| 2026-05-08 01:09 | 34.78779 | -84.28278 | 31178 ft | 496 kts | 357° |
| 2026-05-08 01:09 | 34.82131 | -84.27466 | 31494 ft | 500 kts | 358° |
| 2026-05-08 01:10 | 34.85530 | -84.26635 | 31843 ft | 503 kts | 358° |
| 2026-05-08 01:10 | 34.88986 | -84.25790 | 32215 ft | 507 kts | 357° |
| 2026-05-08 01:10 | 34.92477 | -84.24939 | 32500 ft | 512 kts | 357° |
| 2026-05-08 01:10 | 34.95965 | -84.24087 | 32808 ft | 515 kts | 357° |
| 2026-05-08 01:11 | 34.99510 | -84.23220 | 33118 ft | 518 kts | 357° |
| 2026-05-08 01:11 | 35.03029 | -84.22359 | 33386 ft | 521 kts | 357° |
| 2026-05-08 01:11 | 35.06613 | -84.21481 | 33702 ft | 523 kts | 358° |
| 2026-05-08 01:11 | 35.10187 | -84.20603 | 34073 ft | 524 kts | 358° |
| 2026-05-08 01:12 | 35.13740 | -84.19728 | 34491 ft | 522 kts | 356° |
| 2026-05-08 01:12 | 35.17269 | -84.18853 | 35074 ft | 516 kts | 356° |
| 2026-05-08 01:12 | 35.20800 | -84.17981 | 35540 ft | 513 kts | 356° |
| 2026-05-08 01:12 | 35.24306 | -84.17120 | 35943 ft | 511 kts | 356° |
| 2026-05-08 01:13 | 35.27753 | -84.16274 | 36318 ft | 509 kts | 356° |
| 2026-05-08 01:13 | 35.31227 | -84.15419 | 36707 ft | 508 kts | 356° |
| 2026-05-08 01:13 | 35.34683 | -84.14567 | 37084 ft | 505 kts | 356° |
| 2026-05-08 01:13 | 35.38121 | -84.13719 | 37521 ft | 504 kts | 356° |
| 2026-05-08 01:14 | 35.41535 | -84.12877 | 37872 ft | 502 kts | 356° |
| 2026-05-08 01:14 | 35.44952 | -84.12034 | 38192 ft | 501 kts | 356° |
| 2026-05-08 01:14 | 35.48382 | -84.11187 | 38504 ft | 500 kts | 356° |
| 2026-05-08 01:14 | 35.51762 | -84.10350 | 38800 ft | 499 kts | 356° |
| 2026-05-08 01:15 | 35.55136 | -84.09515 | 39024 ft | 498 kts | 356° |
| 2026-05-08 01:15 | 35.58563 | -84.08667 | 39241 ft | 498 kts | 356° |
| 2026-05-08 01:15 | 35.61964 | -84.07823 | 39516 ft | 498 kts | 356° |
| 2026-05-08 01:15 | 35.65347 | -84.06983 | 39722 ft | 497 kts | 356° |
| 2026-05-08 01:16 | 35.68701 | -84.06150 | 39904 ft | 497 kts | 356° |
| 2026-05-08 01:16 | 35.72137 | -84.05296 | 40088 ft | 497 kts | 356° |
| 2026-05-08 01:16 | 35.75487 | -84.04462 | 40270 ft | 497 kts | 356° |
| 2026-05-08 01:16 | 35.78889 | -84.03615 | 40443 ft | 497 kts | 356° |
| 2026-05-08 01:17 | 35.82264 | -84.02773 | 40618 ft | 497 kts | 356° |
| 2026-05-08 01:17 | 35.85637 | -84.01931 | 40777 ft | 497 kts | 356° |
| 2026-05-08 01:17 | 35.89070 | -84.01007 | 40951 ft | 505 kts | 0° |
| 2026-05-08 01:17 | 35.92438 | -83.99544 | 41018 ft | 527 kts | 11° |
| 2026-05-08 01:18 | 35.95721 | -83.97444 | 41027 ft | 536 kts | 16° |
| 2026-05-08 01:18 | 36.02213 | -83.92824 | 41025 ft | 540 kts | 18° |
| 2026-05-08 01:19 | 36.08681 | -83.88109 | 41028 ft | 540 kts | 17° |
| 2026-05-08 01:19 | 36.15183 | -83.83412 | 41017 ft | 539 kts | 17° |
| 2026-05-08 01:20 | 36.21673 | -83.78755 | 41016 ft | 540 kts | 17° |
| 2026-05-08 01:20 | 36.28168 | -83.74094 | 41007 ft | 540 kts | 17° |
| 2026-05-08 01:21 | 36.34673 | -83.69415 | 41067 ft | 540 kts | 17° |
| 2026-05-08 01:21 | 36.41166 | -83.64733 | 41010 ft | 540 kts | 17° |
| 2026-05-08 01:22 | 36.47583 | -83.60098 | 41007 ft | 540 kts | 17° |
| 2026-05-08 01:22 | 36.54099 | -83.55381 | 41008 ft | 540 kts | 17° |
| 2026-05-08 01:23 | 36.60580 | -83.50681 | 41021 ft | 541 kts | 17° |
| 2026-05-08 01:23 | 36.67095 | -83.45947 | 41015 ft | 541 kts | 17° |
| 2026-05-08 01:24 | 36.73605 | -83.41207 | 41013 ft | 541 kts | 18° |
| 2026-05-08 01:24 | 36.80093 | -83.36479 | 41010 ft | 541 kts | 18° |
| 2026-05-08 01:25 | 36.86601 | -83.31697 | 41018 ft | 541 kts | 18° |
| 2026-05-08 01:25 | 36.93014 | -83.26972 | 41016 ft | 541 kts | 18° |
| 2026-05-08 01:26 | 36.99449 | -83.22230 | 41020 ft | 541 kts | 18° |
| 2026-05-08 01:26 | 37.05929 | -83.17458 | 41053 ft | 541 kts | 18° |
| 2026-05-08 01:27 | 37.12409 | -83.12656 | 41018 ft | 540 kts | 18° |
| 2026-05-08 01:27 | 37.18898 | -83.07844 | 41021 ft | 541 kts | 18° |
| 2026-05-08 01:28 | 37.25352 | -83.03051 | 41015 ft | 541 kts | 18° |
| 2026-05-08 01:28 | 37.31915 | -82.98499 | 41042 ft | 533 kts | 14° |
| 2026-05-08 01:29 | 37.38468 | -82.94329 | 41033 ft | 532 kts | 14° |
| 2026-05-08 01:29 | 37.45080 | -82.90081 | 41025 ft | 533 kts | 14° |
| 2026-05-08 01:30 | 37.51670 | -82.85762 | 41061 ft | 535 kts | 15° |
| 2026-05-08 01:30 | 37.58251 | -82.81424 | 41029 ft | 534 kts | 15° |
| 2026-05-08 01:31 | 37.64827 | -82.77074 | 41026 ft | 534 kts | 15° |
| 2026-05-08 01:31 | 37.71415 | -82.72706 | 41040 ft | 534 kts | 15° |
| 2026-05-08 01:32 | 37.76887 | -82.69076 | 41035 ft | 534 kts | 15° |
| 2026-05-08 01:32 | 37.83479 | -82.64695 | 41034 ft | 534 kts | 15° |
| 2026-05-08 01:33 | 37.90020 | -82.60339 | 41031 ft | 534 kts | 15° |
| 2026-05-08 01:33 | 37.96595 | -82.55955 | 41073 ft | 534 kts | 16° |
| 2026-05-08 01:34 | 38.03175 | -82.51565 | 41007 ft | 533 kts | 16° |
| 2026-05-08 01:34 | 38.09740 | -82.47161 | 41006 ft | 534 kts | 16° |
| 2026-05-08 01:35 | 38.16308 | -82.42744 | 41011 ft | 534 kts | 16° |
| 2026-05-08 01:35 | 38.22879 | -82.38319 | 40996 ft | 534 kts | 16° |
| 2026-05-08 01:36 | 38.29402 | -82.33921 | 41005 ft | 535 kts | 17° |
| 2026-05-08 01:36 | 38.36021 | -82.29447 | 41007 ft | 535 kts | 17° |
| 2026-05-08 01:37 | 38.42547 | -82.25028 | 41026 ft | 535 kts | 17° |
| 2026-05-08 01:37 | 38.49114 | -82.20569 | 41006 ft | 534 kts | 17° |
| 2026-05-08 01:38 | 38.55682 | -82.16102 | 41007 ft | 535 kts | 17° |
| 2026-05-08 01:38 | 38.62250 | -82.11627 | 41006 ft | 535 kts | 17° |
| 2026-05-08 01:39 | 38.68818 | -82.07144 | 41008 ft | 535 kts | 17° |
| 2026-05-08 01:39 | 38.72163 | -82.05184 | 41010 ft | 521 kts | 8° |
| 2026-05-08 01:39 | 38.75576 | -82.03955 | 41008 ft | 503 kts | 358° |
| 2026-05-08 01:39 | 38.78960 | -82.03485 | 41007 ft | 484 kts | 348° |
| 2026-05-08 01:40 | 38.82265 | -82.03707 | 41011 ft | 470 kts | 341° |
| 2026-05-08 01:40 | 38.88752 | -82.04725 | 41025 ft | 471 kts | 341° |
| 2026-05-08 01:41 | 38.95249 | -82.05738 | 41021 ft | 471 kts | 341° |
| 2026-05-08 01:41 | 39.01776 | -82.06765 | 41025 ft | 471 kts | 341° |
| 2026-05-08 01:42 | 39.08304 | -82.07796 | 41055 ft | 471 kts | 341° |
| 2026-05-08 01:42 | 39.14781 | -82.08821 | 41033 ft | 471 kts | 341° |
| 2026-05-08 01:43 | 39.21254 | -82.09848 | 41034 ft | 471 kts | 341° |
| 2026-05-08 01:43 | 39.27752 | -82.10882 | 41034 ft | 471 kts | 341° |
| 2026-05-08 01:44 | 39.34230 | -82.11915 | 41052 ft | 471 kts | 341° |
| 2026-05-08 01:44 | 39.40767 | -82.12957 | 41011 ft | 470 kts | 341° |
| 2026-05-08 01:45 | 39.47259 | -82.13996 | 41022 ft | 470 kts | 341° |
| 2026-05-08 01:45 | 39.53659 | -82.15021 | 41008 ft | 470 kts | 341° |
| 2026-05-08 01:45 | 39.56866 | -82.15534 | 40872 ft | 467 kts | 341° |
| 2026-05-08 01:46 | 39.60090 | -82.16048 | 40340 ft | 464 kts | 341° |
| 2026-05-08 01:46 | 39.63277 | -82.16560 | 39749 ft | 463 kts | 341° |
| 2026-05-08 01:46 | 39.66522 | -82.17083 | 39179 ft | 462 kts | 340° |
| 2026-05-08 01:46 | 39.69703 | -82.17595 | 38644 ft | 460 kts | 340° |
| 2026-05-08 01:47 | 39.72831 | -82.18096 | 37936 ft | 459 kts | 340° |
| 2026-05-08 01:47 | 39.76020 | -82.18612 | 37196 ft | 459 kts | 340° |
| 2026-05-08 01:47 | 39.79181 | -82.19126 | 36503 ft | 459 kts | 340° |
| 2026-05-08 01:48 | 39.85516 | -82.20153 | 35083 ft | 459 kts | 340° |
| 2026-05-08 01:48 | 39.88708 | -82.20669 | 34399 ft | 458 kts | 340° |
| 2026-05-08 01:48 | 39.91866 | -82.21180 | 33672 ft | 457 kts | 340° |
| 2026-05-08 01:48 | 39.94957 | -82.21683 | 32803 ft | 457 kts | 340° |
| 2026-05-08 01:49 | 39.98189 | -82.22211 | 31854 ft | 459 kts | 340° |
| 2026-05-08 01:49 | 40.01368 | -82.22731 | 30938 ft | 462 kts | 340° |
| 2026-05-08 01:49 | 40.04574 | -82.23255 | 30044 ft | 464 kts | 340° |
| 2026-05-08 01:49 | 40.07846 | -82.23785 | 29177 ft | 462 kts | 340° |
| 2026-05-08 01:50 | 40.10871 | -82.24273 | 28434 ft | 458 kts | 341° |
| 2026-05-08 01:50 | 40.14048 | -82.24787 | 27687 ft | 454 kts | 341° |
| 2026-05-08 01:50 | 40.17153 | -82.25292 | 27014 ft | 450 kts | 341° |
| 2026-05-08 01:50 | 40.20242 | -82.25797 | 26354 ft | 445 kts | 341° |
| 2026-05-08 01:51 | 40.23311 | -82.26299 | 25756 ft | 441 kts | 341° |
| 2026-05-08 01:51 | 40.26344 | -82.26795 | 25142 ft | 436 kts | 341° |
| 2026-05-08 01:51 | 40.29361 | -82.27289 | 24540 ft | 432 kts | 342° |
| 2026-05-08 01:51 | 40.32283 | -82.27766 | 24149 ft | 423 kts | 342° |
| 2026-05-08 01:52 | 40.35184 | -82.28240 | 24009 ft | 419 kts | 342° |
| 2026-05-08 01:52 | 40.38073 | -82.28722 | 23993 ft | 421 kts | 342° |
| 2026-05-08 01:52 | 40.40998 | -82.29210 | 23996 ft | 423 kts | 342° |
| 2026-05-08 01:52 | 40.43914 | -82.29692 | 23997 ft | 423 kts | 342° |
| 2026-05-08 01:53 | 40.46805 | -82.30169 | 23996 ft | 423 kts | 342° |
| 2026-05-08 01:53 | 40.49713 | -82.30820 | 23992 ft | 414 kts | 336° |
| 2026-05-08 01:53 | 40.52443 | -82.31881 | 23994 ft | 408 kts | 332° |
| 2026-05-08 01:53 | 40.55154 | -82.33031 | 23994 ft | 408 kts | 332° |
| 2026-05-08 01:54 | 40.57856 | -82.34161 | 23997 ft | 409 kts | 332° |
| 2026-05-08 01:54 | 40.60585 | -82.35297 | 23995 ft | 409 kts | 332° |
| 2026-05-08 01:54 | 40.63258 | -82.36412 | 23995 ft | 409 kts | 332° |
| 2026-05-08 01:54 | 40.65976 | -82.37547 | 24033 ft | 409 kts | 333° |
| 2026-05-08 01:55 | 40.68718 | -82.38695 | 24007 ft | 408 kts | 333° |
| 2026-05-08 01:55 | 40.71382 | -82.39808 | 23999 ft | 407 kts | 333° |
| 2026-05-08 01:55 | 40.74074 | -82.40934 | 23994 ft | 406 kts | 333° |
| 2026-05-08 01:55 | 40.76766 | -82.42062 | 23993 ft | 405 kts | 333° |
| 2026-05-08 01:56 | 40.79449 | -82.43188 | 23993 ft | 405 kts | 333° |
| 2026-05-08 01:56 | 40.82142 | -82.44318 | 23959 ft | 403 kts | 333° |
| 2026-05-08 01:56 | 40.84789 | -82.45425 | 23391 ft | 399 kts | 334° |
| 2026-05-08 01:56 | 40.87440 | -82.46542 | 22579 ft | 398 kts | 334° |
| 2026-05-08 01:57 | 40.90048 | -82.47641 | 21981 ft | 394 kts | 335° |
| 2026-05-08 01:57 | 40.92650 | -82.48730 | 21622 ft | 383 kts | 335° |
| 2026-05-08 01:57 | 40.95143 | -82.49776 | 21262 ft | 373 kts | 335° |
| 2026-05-08 01:57 | 40.97600 | -82.50810 | 20921 ft | 364 kts | 335° |
| 2026-05-08 01:58 | 40.99989 | -82.51818 | 20594 ft | 355 kts | 335° |
| 2026-05-08 01:58 | 41.02284 | -82.52788 | 20273 ft | 347 kts | 335° |
| 2026-05-08 01:58 | 41.04574 | -82.53757 | 19909 ft | 340 kts | 335° |
| 2026-05-08 01:58 | 41.06800 | -82.54702 | 19478 ft | 336 kts | 335° |
| 2026-05-08 01:59 | 41.09034 | -82.55657 | 19040 ft | 331 kts | 335° |
| 2026-05-08 01:59 | 41.11180 | -82.56612 | 18637 ft | 327 kts | 334° |
| 2026-05-08 01:59 | 41.13325 | -82.57572 | 18207 ft | 324 kts | 334° |
| 2026-05-08 01:59 | 41.15454 | -82.58521 | 17671 ft | 322 kts | 335° |
| 2026-05-08 02:00 | 41.17581 | -82.59468 | 17121 ft | 321 kts | 335° |
| 2026-05-08 02:00 | 41.19681 | -82.60403 | 16600 ft | 319 kts | 335° |
| 2026-05-08 02:00 | 41.21780 | -82.61338 | 16063 ft | 317 kts | 335° |
| 2026-05-08 02:00 | 41.23847 | -82.62259 | 15549 ft | 316 kts | 335° |
| 2026-05-08 02:01 | 41.25934 | -82.63188 | 15126 ft | 312 kts | 335° |
| 2026-05-08 02:01 | 41.27955 | -82.64088 | 14973 ft | 308 kts | 335° |
| 2026-05-08 02:01 | 41.29918 | -82.65161 | 14971 ft | 305 kts | 327° |
| 2026-05-08 02:01 | 41.31761 | -82.66557 | 14986 ft | 305 kts | 324° |
| 2026-05-08 02:02 | 41.33616 | -82.68006 | 14982 ft | 306 kts | 324° |
| 2026-05-08 02:02 | 41.35464 | -82.69425 | 14986 ft | 306 kts | 324° |
| 2026-05-08 02:02 | 41.37303 | -82.70838 | 14978 ft | 307 kts | 324° |
| 2026-05-08 02:02 | 41.39143 | -82.72255 | 14983 ft | 307 kts | 324° |
| 2026-05-08 02:03 | 41.40990 | -82.73678 | 14977 ft | 307 kts | 324° |
| 2026-05-08 02:03 | 41.42851 | -82.75113 | 14977 ft | 306 kts | 324° |
| 2026-05-08 02:03 | 41.44700 | -82.76540 | 14917 ft | 307 kts | 324° |
| 2026-05-08 02:03 | 41.46561 | -82.77980 | 14330 ft | 313 kts | 324° |
| 2026-05-08 02:04 | 41.48436 | -82.79426 | 13933 ft | 308 kts | 324° |
| 2026-05-08 02:04 | 41.50273 | -82.80842 | 13458 ft | 305 kts | 324° |
| 2026-05-08 02:04 | 41.52115 | -82.82268 | 12887 ft | 305 kts | 324° |
| 2026-05-08 02:04 | 41.53944 | -82.83685 | 12320 ft | 304 kts | 324° |
| 2026-05-08 02:05 | 41.55767 | -82.85098 | 11797 ft | 303 kts | 324° |
| 2026-05-08 02:05 | 41.57604 | -82.86524 | 11166 ft | 305 kts | 324° |
| 2026-05-08 02:05 | 41.59419 | -82.87933 | 10620 ft | 305 kts | 324° |
| 2026-05-08 02:05 | 41.61248 | -82.89352 | 10175 ft | 302 kts | 324° |
| 2026-05-08 02:06 | 41.63058 | -82.90755 | 9994 ft | 300 kts | 324° |
| 2026-05-08 02:06 | 41.64863 | -82.92159 | 9976 ft | 297 kts | 324° |
| 2026-05-08 02:06 | 41.66594 | -82.93506 | 9976 ft | 279 kts | 323° |
| 2026-05-08 02:06 | 41.68111 | -82.94964 | 9973 ft | 262 kts | 314° |
| 2026-05-08 02:07 | 41.69472 | -82.96538 | 9978 ft | 263 kts | 313° |
| 2026-05-08 02:07 | 41.70886 | -82.98180 | 9947 ft | 266 kts | 314° |
| 2026-05-08 02:07 | 41.72246 | -82.99742 | 9774 ft | 259 kts | 314° |
| 2026-05-08 02:07 | 41.73619 | -83.01324 | 9518 ft | 260 kts | 314° |
| 2026-05-08 02:08 | 41.74992 | -83.02910 | 9255 ft | 262 kts | 314° |
| 2026-05-08 02:08 | 41.76359 | -83.04486 | 8981 ft | 259 kts | 314° |
| 2026-05-08 02:08 | 41.77743 | -83.06082 | 8703 ft | 261 kts | 314° |
| 2026-05-08 02:08 | 41.79130 | -83.07687 | 8447 ft | 265 kts | 315° |
| 2026-05-08 02:09 | 41.80520 | -83.09293 | 8213 ft | 263 kts | 315° |
| 2026-05-08 02:09 | 41.81910 | -83.10896 | 7944 ft | 262 kts | 315° |
| 2026-05-08 02:09 | 41.83292 | -83.12494 | 7677 ft | 264 kts | 315° |
| 2026-05-08 02:09 | 41.84681 | -83.14101 | 7418 ft | 262 kts | 315° |
| 2026-05-08 02:10 | 41.86062 | -83.15701 | 7171 ft | 263 kts | 315° |
| 2026-05-08 02:10 | 41.87447 | -83.17259 | 6908 ft | 261 kts | 316° |
| 2026-05-08 02:10 | 41.88848 | -83.18805 | 6656 ft | 261 kts | 316° |
| 2026-05-08 02:10 | 41.90249 | -83.20361 | 6413 ft | 263 kts | 316° |
| 2026-05-08 02:11 | 41.91647 | -83.21918 | 6139 ft | 259 kts | 316° |
| 2026-05-08 02:11 | 41.93002 | -83.23432 | 5895 ft | 261 kts | 316° |
| 2026-05-08 02:11 | 41.94417 | -83.25017 | 5693 ft | 258 kts | 316° |
| 2026-05-08 02:11 | 41.95790 | -83.26554 | 5546 ft | 259 kts | 316° |
| 2026-05-08 02:12 | 41.97181 | -83.28113 | 5447 ft | 260 kts | 316° |
| 2026-05-08 02:12 | 41.98546 | -83.29644 | 5320 ft | 258 kts | 316° |
| 2026-05-08 02:12 | 41.99942 | -83.31203 | 5190 ft | 257 kts | 317° |
| 2026-05-08 02:12 | 42.01449 | -83.32470 | 5085 ft | 260 kts | 333° |
| 2026-05-08 02:13 | 42.03238 | -83.32992 | 4986 ft | 267 kts | 356° |
| 2026-05-08 02:13 | 42.05050 | -83.32560 | 4894 ft | 272 kts | 18° |
| 2026-05-08 02:13 | 42.06750 | -83.31357 | 4768 ft | 274 kts | 29° |
| 2026-05-08 02:13 | 42.08356 | -83.30035 | 4689 ft | 274 kts | 28° |
| 2026-05-08 02:14 | 42.09987 | -83.28733 | 4560 ft | 273 kts | 27° |
| 2026-05-08 02:14 | 42.11597 | -83.27474 | 4443 ft | 272 kts | 27° |
| 2026-05-08 02:14 | 42.13224 | -83.26199 | 4305 ft | 270 kts | 27° |
| 2026-05-08 02:14 | 42.14872 | -83.24910 | 4187 ft | 272 kts | 27° |
| 2026-05-08 02:15 | 42.16486 | -83.23646 | 4082 ft | 269 kts | 27° |
| 2026-05-08 02:15 | 42.18065 | -83.22410 | 3954 ft | 271 kts | 27° |
| 2026-05-08 02:15 | 42.19672 | -83.21150 | 3866 ft | 263 kts | 27° |
| 2026-05-08 02:15 | 42.21211 | -83.19958 | 3728 ft | 253 kts | 26° |
| 2026-05-08 02:16 | 42.22817 | -83.19265 | 3592 ft | 237 kts | 0° |
| 2026-05-08 02:16 | 42.24381 | -83.19649 | 3433 ft | 223 kts | 333° |
| 2026-05-08 02:16 | 42.25766 | -83.20605 | 2953 ft | 228 kts | 328° |
| 2026-05-08 02:16 | 42.27201 | -83.21665 | 2361 ft | 240 kts | 329° |
| 2026-05-08 02:17 | 42.28665 | -83.22720 | 2029 ft | 239 kts | 329° |
| 2026-05-08 02:17 | 42.29642 | -83.23419 | 1952 ft | 230 kts | 329° |
| 2026-05-08 02:17 | 42.31431 | -83.24698 | 1953 ft | 210 kts | 329° |
| 2026-05-08 02:17 | 42.32266 | -83.25294 | 1952 ft | 200 kts | 329° |
| 2026-05-08 02:18 | 42.33812 | -83.26401 | 1953 ft | 179 kts | 328° |
| 2026-05-08 02:18 | 42.34793 | -83.27271 | 1957 ft | 161 kts | 314° |
| 2026-05-08 02:18 | 42.35242 | -83.28020 | 1958 ft | 147 kts | 296° |
| 2026-05-08 02:18 | 42.35543 | -83.29291 | 1965 ft | 140 kts | 274° |
| 2026-05-08 02:19 | 42.35453 | -83.30603 | 1967 ft | 141 kts | 253° |
| 2026-05-08 02:19 | 42.34995 | -83.31747 | 1967 ft | 142 kts | 231° |
| 2026-05-08 02:19 | 42.34222 | -83.32570 | 1966 ft | 145 kts | 210° |
| 2026-05-08 02:19 | 42.33229 | -83.32909 | 1974 ft | 148 kts | 186° |
| 2026-05-08 02:20 | 42.32227 | -83.32664 | 1961 ft | 151 kts | 162° |
| 2026-05-08 02:20 | 42.31307 | -83.31955 | 1967 ft | 154 kts | 150° |
| 2026-05-08 02:20 | 42.30423 | -83.31187 | 1979 ft | 155 kts | 152° |
| 2026-05-08 02:20 | 42.29440 | -83.30642 | 1962 ft | 151 kts | 177° |
| 2026-05-08 02:21 | 42.28474 | -83.30985 | 1991 ft | 145 kts | 213° |
| 2026-05-08 02:21 | 42.27577 | -83.31683 | 1750 ft | 151 kts | 212° |
| 2026-05-08 02:21 | 42.26683 | -83.32369 | 1466 ft | 145 kts | 211° |
| 2026-05-08 02:21 | 42.25792 | -83.33047 | 1267 ft | 144 kts | 211° |
| 2026-05-08 02:22 | 42.24923 | -83.33696 | 1101 ft | 147 kts | 211° |
| 2026-05-08 02:22 | 42.24013 | -83.34353 | 899 ft | 150 kts | 210° |
| 2026-05-08 02:22 | 42.23083 | -83.35022 | 687 ft | 151 kts | 211° |
| 2026-05-08 02:22 | 42.22223 | -83.35680 | 661 ft | 122 kts | 207° |
| 2026-05-08 02:23 | 42.21740 | -83.36017 | 657 ft | 34 kts | 209° |
| 2026-05-08 02:23 | 42.21573 | -83.36140 | 658 ft | 27 kts | 208° |
| 2026-05-08 02:23 | 42.21388 | -83.36276 | 657 ft | 32 kts | 208° |
| 2026-05-08 02:23 | 42.21225 | -83.36355 | 655 ft | 1 kts | 147° |
| 2026-05-08 02:24 | 42.21209 | -83.36336 | 658 ft | 15 kts | 131° |
| 2026-05-08 02:24 | 42.21171 | -83.36143 | 658 ft | 6 kts | 48° |
| 2026-05-08 02:24 | 42.21228 | -83.36113 | 657 ft | 21 kts | 18° |
| 2026-05-08 02:24 | 42.21426 | -83.35970 | 661 ft | 36 kts | 29° |
| 2026-05-08 02:25 | 42.21496 | -83.35921 | 659 ft | 0 kts | 28° |
| 2026-05-08 02:25 | 42.21537 | -83.35849 | 661 ft | 22 kts | 78° |
| 2026-05-08 02:25 | 42.21548 | -83.35548 | 661 ft | 33 kts | 110° |
| 2026-05-08 02:25 | 42.21524 | -83.35511 | 660 ft | 0 kts | 157° |
| 2026-05-08 02:26 | 42.21497 | -83.35511 | 660 ft | 13 kts | 194° |
| 2026-05-08 02:26 | 42.21394 | -83.35580 | 658 ft | 17 kts | 193° |
| 2026-05-08 02:26 | 42.21327 | -83.35512 | 660 ft | 11 kts | 120° |
| 2026-05-08 02:26 | 42.21324 | -83.35506 | 660 ft | 0 kts | 126° |